Terminal Aerodrome Forecast
Issued by NWS Bismarck, ND

Home | Current Version | Previous Version | Text Only | Print | Product List | Glossary Off
Versions: 1 2 3 4 5 6 7 8 9 10 11 12 13 14 15 16 17 18

000
FTUS43 KBIS 080345 AAA
TAFBIS
TAF AMD
KBIS 080345Z 0804/0824 29012KT P6SM BKN150
     FM081100 31007KT P6SM BKN250
     FM081600 30012KT P6SM BKN250
     FM081800 31018G26KT P6SM BKN250=

USA.gov is the U.S. government's official web portal to all federal, state and local government web resources and services.